Time;durP1;ratioP1;P1;durP2;ratioP2;P2;SDS_P1;SDS_P2;PMS_P1;PMS_P2;Temp;Humidity;BMP_temperature;BMP_pressure;BME280_temperature;BME280_humidity;BME280_pressure;Samples;Min_cycle;Max_cycle;Signal;HPM_P1;HPM_P2
2023/12/28 00:00:44;;;;;;;1.90;1.70;;;10.30;92.60;;;11.51;64.07;100576.44;3081587;46;21000;-66
2023/12/28 00:03:12;;;;;;;8.90;2.17;;;10.30;92.80;;;11.49;63.91;100579.28;3081227;46;20554;-65
2023/12/28 00:05:41;;;;;;;4.37;2.10;;;10.30;92.90;;;11.45;64.56;100564.00;3081409;46;20589;-66
2023/12/28 00:08:09;;;;;;;2.60;1.97;;;10.20;93.20;;;11.38;65.53;100581.56;3080669;46;20443;-64
2023/12/28 00:10:38;;;;;;;5.33;2.07;;;10.20;93.50;;;11.34;65.28;100580.28;3081354;46;20430;-66
2023/12/28 00:13:06;;;;;;;4.37;2.20;;;10.20;93.60;;;11.30;65.92;100584.28;3081214;46;21005;-64
2023/12/28 00:15:34;;;;;;;2.70;1.73;;;10.10;93.90;;;11.30;65.71;100579.03;3081284;46;20455;-64
2023/12/28 00:18:03;;;;;;;2.90;1.97;;;10.10;93.80;;;11.27;66.32;100574.09;3080569;46;21061;-66
2023/12/28 00:20:32;;;;;;;4.93;2.50;;;10.10;94.50;;;11.25;66.38;100591.91;3081037;46;20458;-66
2023/12/28 00:23:00;;;;;;;3.30;2.07;;;10.10;94.20;;;11.24;66.35;100580.59;3080901;46;20435;-65
2023/12/28 00:25:28;;;;;;;3.83;1.97;;;10.00;94.30;;;11.26;66.36;100572.50;3080647;46;20467;-64
2023/12/28 00:27:57;;;;;;;2.73;1.80;;;10.00;94.30;;;11.24;66.54;100585.03;3079815;46;20489;-66
2023/12/28 00:30:26;;;;;;;2.53;2.27;;;10.00;94.30;;;11.23;66.43;100578.13;3081175;46;20428;-66
2023/12/28 00:32:54;;;;;;;4.20;2.50;;;10.00;94.30;;;11.29;66.37;100593.22;3080993;46;21096;-64
2023/12/28 00:35:22;;;;;;;3.33;2.40;;;10.00;94.30;;;11.30;66.26;100590.38;3081043;46;20488;-66
2023/12/28 00:37:51;;;;;;;3.40;1.90;;;10.00;94.40;;;11.33;66.31;100590.03;3080344;46;20439;-64
2023/12/28 00:40:19;;;;;;;2.33;1.90;;;10.00;94.40;;;11.37;66.31;100586.00;3081004;46;20608;-65
2023/12/28 00:42:48;;;;;;;2.60;2.23;;;10.00;94.40;;;11.35;66.44;100592.47;3080480;46;20497;-65
2023/12/28 00:45:17;;;;;;;5.17;2.23;;;10.10;94.50;;;11.41;66.28;100597.03;3080721;46;20427;-65
2023/12/28 00:47:45;;;;;;;4.00;2.17;;;10.10;94.50;;;11.39;66.64;100599.00;3080537;46;20438;-65
2023/12/28 00:50:16;;;;;;;3.30;1.83;;;10.10;94.60;;;11.43;66.55;100587.09;3080462;46;20431;-64
2023/12/28 00:52:45;;;;;;;3.00;2.10;;;10.10;94.60;;;11.45;66.36;100595.63;3081020;46;20427;-63
2023/12/28 00:55:13;;;;;;;3.13;2.13;;;10.10;94.60;;;11.47;66.44;100596.28;3080368;46;21077;-64
2023/12/28 00:57:41;;;;;;;2.47;2.20;;;10.10;94.60;;;11.49;66.42;100597.72;3080540;46;21022;-65
2023/12/28 01:00:11;;;;;;;4.37;2.57;;;10.10;94.60;;;11.45;66.55;100579.81;3081025;46;20497;-66
2023/12/28 01:02:39;;;;;;;4.27;2.40;;;10.10;94.60;;;11.46;66.58;100578.81;3081045;46;21010;-66
2023/12/28 01:05:08;;;;;;;4.80;1.80;;;10.10;94.60;;;11.49;66.38;100599.53;3080645;46;21153;-65
2023/12/28 01:07:36;;;;;;;3.93;2.20;;;10.10;94.60;;;11.52;66.27;100604.44;3080445;46;21032;-66
2023/12/28 01:10:05;;;;;;;3.17;2.67;;;10.10;94.70;;;11.54;66.04;100624.34;3080445;46;20473;-64
2023/12/28 01:12:34;;;;;;;4.93;2.20;;;10.10;94.70;;;11.58;66.19;100606.34;3080518;46;20493;-66
2023/12/28 01:15:02;;;;;;;4.00;2.57;;;10.00;94.60;;;11.58;66.11;100620.34;3080545;46;20427;-65
2023/12/28 01:17:31;;;;;;;2.90;2.10;;;10.10;94.70;;;11.63;66.15;100622.41;3079510;46;20450;-65
2023/12/28 01:20:00;;;;;;;2.73;2.10;;;10.10;94.70;;;11.68;65.98;100629.81;3083133;46;20644;-66
2023/12/28 01:22:28;;;;;;;2.33;2.03;;;10.10;94.70;;;11.68;66.08;100633.25;3082429;46;20431;-66
2023/12/28 01:24:57;;;;;;;2.90;2.20;;;10.20;94.70;;;11.73;65.98;100653.81;3082767;46;20427;-66
2023/12/28 01:27:25;;;;;;;3.80;2.40;;;10.20;94.70;;;11.78;65.79;100661.97;3082352;46;20444;-66
2023/12/28 01:29:53;;;;;;;3.93;2.00;;;10.20;94.70;;;11.79;65.80;100664.41;3082949;46;20432;-66
2023/12/28 01:32:22;;;;;;;5.20;2.50;;;10.20;94.70;;;11.84;65.60;100667.31;3083014;46;21103;-65
2023/12/28 01:34:50;;;;;;;3.47;2.17;;;10.30;94.70;;;11.87;65.52;100669.59;3082977;46;20448;-65
2023/12/28 01:37:19;;;;;;;2.63;2.17;;;10.20;94.70;;;11.90;65.36;100677.16;3082640;46;20451;-65
2023/12/28 01:39:47;;;;;;;5.43;2.57;;;10.30;94.70;;;11.94;65.38;100677.59;3082798;46;20506;-65
2023/12/28 01:42:15;;;;;;;2.97;2.00;;;10.30;94.60;;;11.96;65.46;100676.41;3082114;46;21077;-65
2023/12/28 01:44:44;;;;;;;2.30;2.10;;;10.30;94.60;;;11.99;65.34;100678.69;3083093;46;20423;-64
2023/12/28 01:47:12;;;;;;;4.97;1.90;;;10.40;94.60;;;12.04;65.37;100675.47;3082399;46;20451;-66
2023/12/28 01:49:42;;;;;;;4.40;2.50;;;10.40;94.60;;;11.97;64.73;100679.88;3082528;46;20473;-66
2023/12/28 01:52:10;;;;;;;2.67;2.20;;;10.40;94.40;;;11.99;65.02;100669.94;3082625;46;20471;-65
2023/12/28 01:54:39;;;;;;;2.97;2.13;;;10.50;94.40;;;12.00;64.79;100672.41;3082593;46;20431;-64
2023/12/28 01:57:08;;;;;;;6.30;2.67;;;10.50;94.30;;;12.01;64.85;100684.59;3082274;46;20570;-64
2023/12/28 01:59:37;;;;;;;3.23;2.40;;;10.50;94.30;;;12.01;65.14;100695.13;3082475;46;20561;-66
2023/12/28 02:02:06;;;;;;;2.67;2.47;;;10.40;94.20;;;12.02;64.86;100696.78;3081851;46;21006;-64
2023/12/28 02:04:35;;;;;;;4.03;2.70;;;10.50;94.20;;;12.00;64.33;100696.16;3082678;46;20436;-66
2023/12/28 02:07:05;;;;;;;4.80;2.87;;;10.50;94.20;;;11.97;64.89;100691.25;3082217;46;21016;-64
2023/12/28 02:09:34;;;;;;;6.53;2.30;;;10.50;94.20;;;11.90;64.88;100694.78;3081651;46;20442;-64
2023/12/28 02:12:04;;;;;;;2.93;2.20;;;10.50;94.10;;;11.90;65.00;100695.63;3082555;46;20486;-66
2023/12/28 02:14:32;;;;;;;2.47;2.27;;;10.50;94.10;;;11.91;65.04;100702.50;3082652;46;20428;-68
2023/12/28 02:17:42;;;;;;;2.73;2.20;;;10.50;94.10;;;11.85;64.98;100687.44;3081479;46;20580;-66
2023/12/28 02:20:12;;;;;;;3.87;2.43;;;10.50;94.10;;;11.82;65.17;100689.59;3081852;46;20425;-66
2023/12/28 02:22:42;;;;;;;4.43;2.70;;;10.50;94.10;;;11.79;65.24;100685.50;3082407;46;21120;-64
2023/12/28 02:25:13;;;;;;;5.13;2.87;;;10.40;94.00;;;11.81;65.07;100688.81;3082360;46;21021;-66
2023/12/28 02:27:48;;;;;;;6.00;2.60;;;10.40;94.40;;;11.82;65.04;100685.16;3081866;46;20443;-64
2023/12/28 02:30:24;;;;;;;4.10;2.30;;;10.40;94.10;;;11.82;65.16;100690.44;3081294;46;20520;-64
2023/12/28 02:33:22;;;;;;;6.00;2.83;;;10.40;94.10;;;11.79;65.04;100677.59;3081779;46;20449;-66
2023/12/28 02:35:59;;;;;;;6.27;3.10;;;10.40;94.20;;;11.80;65.00;100675.78;3082152;46;21001;-65
2023/12/28 02:38:30;;;;;;;2.73;2.50;;;10.40;94.10;;;11.80;65.09;100687.16;3081621;46;20439;-63
2023/12/28 02:41:00;;;;;;;3.47;2.57;;;10.40;94.10;;;11.83;64.89;100684.16;3081267;46;20454;-66
2023/12/28 02:43:28;;;;;;;3.37;2.40;;;10.40;94.10;;;11.81;65.04;100675.63;3082326;46;20468;-65
2023/12/28 02:45:57;;;;;;;2.93;2.50;;;10.40;94.10;;;11.82;65.02;100674.59;3082073;46;20635;-66
2023/12/28 02:48:26;;;;;;;4.53;2.60;;;10.40;94.10;;;11.80;64.95;100671.34;3081271;46;20469;-65
2023/12/28 02:50:54;;;;;;;5.37;3.20;;;10.40;94.10;;;11.80;64.84;100681.88;3082072;46;20436;-64
2023/12/28 02:53:22;;;;;;;3.70;2.83;;;10.40;94.10;;;11.76;64.93;100677.16;3082204;46;20429;-65
2023/12/28 02:55:51;;;;;;;4.07;2.60;;;10.30;94.10;;;11.74;65.28;100677.38;3081849;46;20427;-66
2023/12/28 02:58:19;;;;;;;6.07;3.07;;;10.30;94.10;;;11.73;65.06;100686.25;3081600;46;20440;-65
2023/12/28 03:00:48;;;;;;;3.47;2.50;;;10.30;94.10;;;11.72;65.35;100674.06;3082213;46;20560;-66
2023/12/28 03:03:17;;;;;;;4.53;2.33;;;10.30;94.10;;;11.73;65.24;100670.44;3082282;46;20530;-65
2023/12/28 03:05:46;;;;;;;3.53;2.40;;;10.30;94.10;;;11.74;65.22;100674.72;3081497;46;20439;-66
2023/12/28 03:08:14;;;;;;;6.43;2.80;;;10.30;94.20;;;11.70;65.35;100668.16;3081407;46;20468;-65
2023/12/28 03:10:43;;;;;;;4.27;2.90;;;10.20;94.20;;;11.63;65.46;100680.41;3082196;46;20423;-65
2023/12/28 03:13:11;;;;;;;4.67;3.07;;;10.20;94.20;;;11.63;65.75;100674.31;3081778;46;20438;-62
2023/12/28 03:15:39;;;;;;;5.10;2.60;;;10.30;94.20;;;11.67;65.41;100686.94;3081890;46;20440;-65
2023/12/28 03:18:08;;;;;;;3.93;2.50;;;10.30;94.20;;;11.70;65.34;100683.97;3081117;46;20451;-66
2023/12/28 03:20:37;;;;;;;4.63;2.50;;;10.20;94.20;;;11.71;65.35;100684.81;3081793;46;20427;-65
2023/12/28 03:23:05;;;;;;;4.13;2.53;;;10.30;94.30;;;11.71;65.29;100677.72;3081848;46;20549;-66
2023/12/28 03:25:33;;;;;;;4.90;2.53;;;10.20;94.20;;;11.71;65.40;100677.72;3081962;46;20478;-64
2023/12/28 03:28:02;;;;;;;3.20;2.43;;;10.30;94.30;;;11.69;65.42;100671.81;3081035;46;20633;-66
2023/12/28 03:30:30;;;;;;;5.30;2.77;;;10.20;94.20;;;11.72;65.32;100665.38;3081901;46;20471;-63
2023/12/28 03:32:59;;;;;;;4.40;2.43;;;10.30;94.30;;;11.68;65.55;100661.44;3081353;46;21404;-66
2023/12/28 03:35:27;;;;;;;4.07;2.90;;;10.20;94.20;;;11.68;65.42;100662.25;3081543;46;20439;-66
2023/12/28 03:37:56;;;;;;;4.57;2.30;;;10.20;94.30;;;11.66;65.54;100658.97;3081121;46;20503;-66
2023/12/28 03:40:24;;;;;;;4.97;2.20;;;10.20;94.30;;;11.67;65.51;100650.03;3081789;46;20440;-66
2023/12/28 03:42:53;;;;;;;3.83;2.20;;;10.20;94.30;;;11.60;65.66;100646.50;3080873;46;20486;-65
2023/12/28 03:45:21;;;;;;;2.50;2.23;;;10.20;94.30;;;11.60;66.01;100651.78;3081419;46;21004;-66
2023/12/28 03:47:51;;;;;;;3.33;3.03;;;10.30;94.40;;;11.64;65.94;100650.44;3081054;46;20477;-66
2023/12/28 03:50:19;;;;;;;5.13;2.50;;;10.30;94.60;;;11.64;65.80;100653.06;3081041;46;20444;-63
2023/12/28 03:52:47;;;;;;;2.73;2.30;;;10.30;94.40;;;11.66;65.81;100650.22;3081837;46;21052;-65
2023/12/28 03:55:16;;;;;;;6.13;2.93;;;10.30;94.40;;;11.65;65.85;100646.78;3081596;46;20469;-65
2023/12/28 03:57:46;;;;;;;4.77;2.83;;;10.30;94.40;;;11.66;65.94;100642.31;3080850;46;21016;-65
2023/12/28 04:00:16;;;;;;;6.57;2.70;;;10.30;94.40;;;11.64;66.19;100626.69;3081286;46;20463;-66
2023/12/28 04:02:44;;;;;;;5.47;2.80;;;10.30;94.40;;;11.64;65.85;100633.78;3081440;46;20439;-65
2023/12/28 04:05:15;;;;;;;3.47;2.97;;;10.30;94.40;;;11.69;65.90;100642.00;3081477;46;20562;-65
2023/12/28 04:07:44;;;;;;;5.80;2.63;;;10.30;94.40;;;11.71;65.77;100637.34;3080773;46;20610;-66
2023/12/28 04:10:12;;;;;;;4.17;3.00;;;10.30;94.50;;;11.71;66.00;100640.81;3081359;46;20445;-65
2023/12/28 04:12:40;;;;;;;6.07;2.77;;;10.30;94.50;;;11.73;65.65;100644.06;3081225;46;20540;-66
2023/12/28 04:15:09;;;;;;;6.30;2.83;;;10.30;94.50;;;11.70;65.93;100639.16;3081436;46;20500;-65
2023/12/28 04:17:37;;;;;;;3.53;2.37;;;10.30;94.40;;;11.71;65.90;100645.25;3080050;46;20443;-66
2023/12/28 04:20:07;;;;;;;3.40;2.50;;;10.40;94.50;;;11.69;66.21;100645.47;3081209;46;20442;-64
2023/12/28 04:22:35;;;;;;;4.60;2.50;;;10.30;94.50;;;11.65;66.36;100649.41;3080750;46;20443;-64
2023/12/28 04:25:04;;;;;;;6.37;3.30;;;10.30;94.50;;;11.66;66.02;100643.16;3080334;46;20461;-65
2023/12/28 04:27:32;;;;;;;7.70;3.20;;;10.30;94.50;;;11.70;66.13;100648.88;3080784;46;20444;-66
2023/12/28 04:30:01;;;;;;;2.63;2.43;;;10.40;94.50;;;11.71;66.05;100651.34;3081298;46;21105;-66
2023/12/28 04:32:30;;;;;;;3.90;2.70;;;10.30;94.50;;;11.68;65.99;100651.72;3081018;46;20988;-65
2023/12/28 04:34:58;;;;;;;2.93;2.57;;;10.30;94.50;;;11.68;66.37;100650.91;3081086;46;20440;-66
2023/12/28 04:37:27;;;;;;;3.80;2.90;;;10.30;94.60;;;11.66;66.37;100645.78;3080760;46;20468;-66
2023/12/28 04:39:55;;;;;;;2.97;2.60;;;10.30;94.60;;;11.63;66.71;100643.50;3080876;46;21017;-64
2023/12/28 04:42:24;;;;;;;5.13;2.80;;;10.30;94.60;;;11.63;66.50;100638.22;3080830;46;20431;-66
2023/12/28 04:44:52;;;;;;;5.83;2.90;;;10.30;94.60;;;11.63;66.55;100642.69;3080768;46;20994;-66
2023/12/28 04:47:20;;;;;;;4.20;2.80;;;10.30;94.70;;;11.63;66.64;100643.50;3080722;46;20634;-66
2023/12/28 04:49:49;;;;;;;3.90;3.13;;;10.30;94.70;;;11.61;66.56;100634.97;3080778;46;20469;-66
2023/12/28 04:52:17;;;;;;;5.73;3.03;;;10.30;94.70;;;11.62;66.63;100636.63;3080970;46;20509;-66
2023/12/28 04:54:46;;;;;;;4.73;2.97;;;10.20;94.80;;;11.58;66.94;100630.88;3083076;46;20456;-63
2023/12/28 04:57:14;;;;;;;4.77;3.10;;;10.30;94.90;;;11.55;67.21;100633.88;3082825;46;21012;-66
2023/12/28 04:59:43;;;;;;;3.03;2.60;;;10.30;94.90;;;11.57;67.06;100623.16;3083108;46;20428;-66
2023/12/28 05:02:11;;;;;;;5.00;2.77;;;10.20;94.90;;;11.57;67.29;100623.16;3083082;46;21207;-66
2023/12/28 05:04:39;;;;;;;3.73;3.13;;;10.20;94.90;;;11.56;67.33;100624.97;3083376;46;20432;-64
2023/12/28 05:07:08;;;;;;;3.70;2.90;;;10.20;95.00;;;11.55;67.38;100625.19;3083120;46;20440;-66
2023/12/28 05:09:36;;;;;;;3.57;2.70;;;10.20;95.20;;;11.57;67.50;100628.44;3083047;46;20544;-65
2023/12/28 05:12:05;;;;;;;3.73;2.83;;;10.20;95.00;;;11.60;67.20;100629.88;3083057;46;20549;-62
2023/12/28 05:14:33;;;;;;;4.37;2.70;;;10.20;95.10;;;11.57;67.41;100631.91;3082979;46;21077;-66
2023/12/28 05:17:02;;;;;;;6.77;3.60;;;10.20;95.20;;;11.55;67.64;100625.97;3082900;46;20464;-66
2023/12/28 05:19:30;;;;;;;4.53;3.17;;;10.20;95.20;;;11.54;67.99;100612.97;3082912;46;21078;-66
2023/12/28 05:22:03;;;;;;;3.00;2.60;;;10.20;95.20;;;11.44;68.23;100604.53;3082926;46;20478;-63
2023/12/28 05:24:32;;;;;;;4.87;2.60;;;10.20;95.40;;;11.39;68.38;100609.53;3083066;46;20422;-63
2023/12/28 05:27:00;;;;;;;6.50;2.83;;;10.20;95.40;;;11.35;68.73;100613.53;3082621;46;20443;-64
2023/12/28 05:29:29;;;;;;;4.23;2.80;;;10.20;95.40;;;11.36;68.66;100615.19;3082789;46;20476;-66
2023/12/28 05:31:57;;;;;;;5.07;2.63;;;10.20;95.40;;;11.39;68.71;100609.53;3082062;46;20542;-65
2023/12/28 05:34:26;;;;;;;4.63;3.00;;;10.20;95.40;;;11.45;68.43;100619.34;3082749;46;20936;-65
2023/12/28 05:36:54;;;;;;;3.43;3.00;;;10.20;95.40;;;11.41;68.67;100623.38;3081909;46;20649;-66
2023/12/28 05:39:23;;;;;;;5.00;3.13;;;10.20;95.50;;;11.43;68.57;100621.38;3082603;46;20446;-64
2023/12/28 05:41:51;;;;;;;5.53;3.50;;;10.20;95.50;;;11.34;68.98;100633.78;3082673;46;20429;-66
2023/12/28 05:44:20;;;;;;;6.17;3.33;;;10.20;95.60;;;11.40;68.80;100621.72;3082722;46;20530;-66
2023/12/28 05:46:49;;;;;;;7.40;2.90;;;10.20;95.60;;;11.47;68.52;100617.34;3082172;46;20451;-65
2023/12/28 05:49:17;;;;;;;5.37;2.87;;;10.20;95.50;;;11.50;68.46;100630.19;3082497;46;20475;-65
2023/12/28 05:51:46;;;;;;;5.23;3.00;;;10.20;95.60;;;11.46;68.63;100628.88;3082779;46;20560;-66
2023/12/28 05:54:14;;;;;;;3.33;2.73;;;10.20;95.60;;;11.50;68.71;100627.53;3082492;46;20546;-66
2023/12/28 05:56:42;;;;;;;4.47;3.10;;;10.20;95.70;;;11.47;68.66;100628.72;3081965;46;20457;-64
2023/12/28 05:59:11;;;;;;;5.27;2.87;;;10.20;95.70;;;11.52;68.58;100636.91;3082775;46;20423;-66
2023/12/28 06:01:44;;;;;;;2.83;2.40;;;10.30;95.60;;;11.51;68.64;100643.16;3082647;46;20444;-65
2023/12/28 06:04:12;;;;;;;5.20;3.10;;;10.30;95.60;;;11.53;68.56;100637.69;3082672;46;20515;-66
2023/12/28 06:06:41;;;;;;;6.13;2.90;;;10.30;95.60;;;11.56;68.52;100642.59;3082291;46;20454;-67
2023/12/28 06:09:09;;;;;;;4.30;2.70;;;10.30;95.50;;;11.63;68.31;100638.22;3082432;46;20440;-66
2023/12/28 06:11:38;;;;;;;5.23;2.70;;;10.30;95.50;;;11.62;68.44;100644.53;3081560;46;20473;-64
2023/12/28 06:14:06;;;;;;;6.50;3.53;;;10.30;95.50;;;11.65;68.24;100640.72;3082746;46;20472;-66
2023/12/28 06:16:35;;;;;;;4.87;2.87;;;10.30;95.50;;;11.75;67.93;100639.44;3082380;46;20451;-65
2023/12/28 06:19:03;;;;;;;3.93;2.23;;;10.40;95.50;;;11.78;67.73;100640.88;3082247;46;21081;-63
2023/12/28 06:21:32;;;;;;;4.13;2.40;;;10.40;95.50;;;11.90;67.69;100645.50;3082447;46;20991;-62
2023/12/28 06:24:01;;;;;;;3.73;2.30;;;10.50;95.50;;;11.90;67.44;100649.97;3082784;46;20463;-66
2023/12/28 06:26:29;;;;;;;5.13;2.50;;;10.50;95.30;;;11.87;67.33;100648.50;3081876;46;21065;-64
2023/12/28 06:28:57;;;;;;;4.50;2.67;;;10.60;95.20;;;11.99;67.35;100654.13;3082479;46;21078;-65
2023/12/28 06:31:26;;;;;;;4.87;2.97;;;10.60;95.20;;;12.07;66.90;100649.56;3082226;46;20427;-66
2023/12/28 06:33:54;;;;;;;7.87;2.67;;;10.70;95.20;;;12.09;66.64;100652.00;3082370;46;21099;-66
2023/12/28 06:36:23;;;;;;;6.00;2.20;;;10.70;95.00;;;12.13;66.40;100648.81;3082284;46;20449;-66
2023/12/28 06:38:51;;;;;;;6.37;3.20;;;10.70;95.00;;;12.14;66.53;100652.25;3081890;46;20444;-66
2023/12/28 06:41:20;;;;;;;4.23;2.43;;;10.80;94.90;;;12.16;66.20;100656.34;3081973;46;20999;-65
2023/12/28 06:43:48;;;;;;;4.90;2.40;;;10.80;94.80;;;12.24;65.96;100658.06;3082453;46;20489;-64
2023/12/28 06:46:17;;;;;;;5.20;2.53;;;10.80;94.70;;;12.36;66.14;100661.03;3082052;46;20432;-66
2023/12/28 06:48:46;;;;;;;4.00;2.73;;;10.90;94.80;;;12.40;65.82;100646.44;3081321;46;20464;-65
2023/12/28 06:51:22;;;;;;;5.67;2.80;;;10.90;94.90;;;12.50;65.73;100657.50;3082188;46;20428;-66
2023/12/28 06:53:50;;;;;;;7.73;2.50;;;11.00;94.60;;;12.58;65.03;100646.78;3082374;46;20439;-65
2023/12/28 06:56:18;;;;;;;4.10;2.63;;;11.00;94.50;;;12.59;64.83;100645.81;3081278;46;20457;-65
2023/12/28 06:58:47;;;;;;;6.47;2.70;;;11.10;94.40;;;12.60;64.90;100650.09;3081806;46;20440;-65
2023/12/28 07:01:15;;;;;;;9.40;2.70;;;11.10;94.30;;;12.53;64.78;100647.38;3082141;46;20428;-64
2023/12/28 07:03:44;;;;;;;6.40;3.07;;;11.10;94.00;;;12.61;65.14;100649.06;3082328;46;20431;-66
2023/12/28 07:06:14;;;;;;;5.93;2.73;;;11.20;94.10;;;12.65;64.78;100651.13;3081910;46;20498;-66
2023/12/28 07:08:42;;;;;;;5.30;2.73;;;11.20;94.00;;;12.72;64.51;100656.47;3081238;46;20443;-65
2023/12/28 07:11:11;;;;;;;9.63;2.90;;;11.30;94.00;;;12.79;64.21;100646.78;3081810;46;20446;-66
2023/12/28 07:13:40;;;;;;;6.33;2.40;;;11.30;93.90;;;12.83;63.93;100646.22;3081834;46;20432;-64
2023/12/28 07:16:08;;;;;;;5.40;2.73;;;11.30;93.80;;;12.87;63.98;100644.00;3081344;46;21011;-65
2023/12/28 07:18:37;;;;;;;10.77;3.43;;;11.40;93.70;;;12.94;63.88;100642.22;3081124;46;20439;-66
2023/12/28 07:21:11;;;;;;;7.80;2.77;;;11.40;93.70;;;13.03;63.68;100643.72;3082260;46;20452;-65
2023/12/28 07:23:39;;;;;;;6.70;3.00;;;11.40;93.60;;;12.97;63.21;100647.13;3081902;46;20512;-65
2023/12/28 07:26:08;;;;;;;3.73;2.33;;;11.50;93.40;;;13.07;63.14;100657.41;3081228;46;20435;-68
2023/12/28 07:28:36;;;;;;;6.47;2.77;;;11.50;93.40;;;13.10;63.02;100641.97;3081062;46;20458;-63
2023/12/28 07:31:04;;;;;;;7.80;2.80;;;11.60;93.40;;;13.11;62.45;100650.72;3081548;46;20460;-66
2023/12/28 07:33:33;;;;;;;7.83;2.77;;;11.60;93.20;;;13.16;62.79;100648.31;3081965;46;21005;-66
2023/12/28 07:36:06;;;;;;;6.57;2.33;;;11.60;93.20;;;13.16;62.50;100654.41;3081703;46;20427;-66
2023/12/28 07:38:34;;;;;;;10.10;2.83;;;11.70;93.10;;;13.20;62.44;100649.53;3081265;46;20472;-66
2023/12/28 07:41:03;;;;;;;9.30;2.83;;;11.70;92.90;;;13.28;62.32;100666.09;3081341;46;20432;-66
2023/12/28 07:43:31;;;;;;;10.67;2.50;;;11.70;92.90;;;13.27;61.90;100651.22;3081595;46;20431;-66
2023/12/28 07:45:59;;;;;;;4.70;2.70;;;11.80;92.70;;;13.27;61.91;100651.22;3081641;46;20456;-66
2023/12/28 07:48:30;;;;;;;5.17;2.90;;;11.80;92.60;;;13.34;62.27;100662.66;3080370;46;20537;-65
2023/12/28 07:50:58;;;;;;;4.23;2.20;;;11.90;92.70;;;13.30;61.54;100658.78;3080910;46;20441;-64
2023/12/28 07:53:27;;;;;;;9.00;2.87;;;11.90;92.40;;;13.28;61.55;100642.31;3081039;46;20439;-66
2023/12/28 07:55:56;;;;;;;8.57;2.97;;;11.90;92.30;;;13.38;61.85;100657.81;3080722;46;21009;-64
2023/12/28 07:58:24;;;;;;;8.43;3.27;;;12.00;92.30;;;13.45;61.32;100654.16;3080682;46;20500;-64
2023/12/28 08:00:53;;;;;;;7.10;1.97;;;12.00;92.30;;;13.33;60.88;100644.34;3080293;46;20498;-64
2023/12/28 08:03:21;;;;;;;5.17;2.20;;;12.00;91.90;;;13.24;60.98;100634.97;3081182;46;20524;-66
2023/12/28 08:05:50;;;;;;;9.67;2.67;;;12.00;91.80;;;13.43;61.00;100666.78;3080795;46;20912;-65
2023/12/28 08:08:18;;;;;;;7.83;3.10;;;12.10;92.00;;;13.51;60.82;100653.41;3080657;46;20490;-66
2023/12/28 08:10:47;;;;;;;7.33;2.60;;;12.10;91.80;;;13.46;60.40;100660.28;3080787;46;20519;-64
2023/12/28 08:13:15;;;;;;;8.23;2.70;;;12.10;91.60;;;13.57;60.41;100665.84;3081097;46;20460;-66
2023/12/28 08:15:48;;;;;;;8.33;2.33;;;12.20;91.70;;;13.69;60.47;100673.22;3081057;46;20430;-66
2023/12/28 08:18:16;;;;;;;10.07;1.87;;;12.20;91.60;;;13.71;59.85;100652.69;3080686;46;20447;-66
2023/12/28 08:20:45;;;;;;;7.90;2.40;;;12.20;91.50;;;13.80;59.95;100668.19;3081106;46;20451;-66
2023/12/28 08:23:13;;;;;;;11.27;3.73;;;12.20;91.50;;;13.84;60.04;100671.25;3080666;46;20451;-66
2023/12/28 08:25:45;;;;;;;7.57;2.53;;;12.30;91.50;;;13.89;59.89;100676.75;3081282;46;20501;-66
2023/12/28 08:28:13;;;;;;;12.27;2.80;;;12.30;91.50;;;13.81;59.57;100671.66;3080302;46;20459;-66
2023/12/28 08:30:42;;;;;;;9.10;2.83;;;12.40;91.20;;;13.83;59.21;100681.03;3082851;46;20477;-66
2023/12/28 08:33:10;;;;;;;13.03;3.60;;;12.40;91.10;;;13.94;59.61;100684.94;3082810;46;20993;-66
2023/12/28 08:35:39;;;;;;;7.67;2.47;;;12.40;91.20;;;13.98;58.77;100672.94;3083375;46;20428;-66
2023/12/28 08:38:08;;;;;;;7.60;3.00;;;12.40;91.10;;;14.05;58.74;100676.41;3082556;46;20483;-64
2023/12/28 08:40:37;;;;;;;9.27;2.93;;;12.40;91.00;;;14.08;58.73;100654.84;3083175;46;20431;-66
2023/12/28 08:43:05;;;;;;;9.10;2.73;;;12.50;90.90;;;14.07;58.76;100648.72;3082719;46;20447;-69
2023/12/28 08:45:35;;;;;;;10.50;2.90;;;12.50;90.90;;;14.13;58.51;100674.44;3082251;46;20452;-66
2023/12/28 08:48:04;;;;;;;6.50;2.83;;;12.50;90.70;;;14.14;58.42;100659.38;3082476;46;20445;-63
2023/12/28 08:50:33;;;;;;;6.13;2.60;;;12.60;90.80;;;14.12;58.23;100656.09;3081537;46;20495;-65
2023/12/28 08:53:02;;;;;;;7.83;2.40;;;12.60;90.60;;;14.09;57.93;100653.84;3083424;46;20427;-63
2023/12/28 08:55:30;;;;;;;9.40;2.70;;;12.60;90.50;;;14.07;57.84;100661.97;3082798;46;20452;-66
2023/12/28 08:57:59;;;;;;;9.50;2.93;;;12.60;90.40;;;14.17;58.18;100661.59;3082591;46;20471;-66
2023/12/28 09:00:28;;;;;;;6.73;2.70;;;12.60;90.40;;;14.28;57.96;100682.22;3083832;46;20500;-65
2023/12/28 09:02:56;;;;;;;9.17;2.70;;;12.70;90.50;;;14.28;57.69;100671.63;3082918;46;20438;-66
2023/12/28 09:05:25;;;;;;;6.13;2.17;;;12.70;90.40;;;14.29;57.60;100667.94;3082827;46;21119;-69
2023/12/28 09:07:53;;;;;;;6.03;2.30;;;12.80;90.20;;;14.35;57.40;100685.72;3082348;46;20500;-64
2023/12/28 09:10:22;;;;;;;7.80;2.43;;;12.80;90.20;;;14.39;57.59;100681.66;3082740;46;20426;-66
2023/12/28 09:12:50;;;;;;;6.30;2.20;;;12.90;90.20;;;14.50;57.41;100680.25;3083006;46;20575;-66
2023/12/28 09:15:19;;;;;;;6.80;2.23;;;12.90;90.20;;;14.50;57.22;100686.34;3082854;43;20540;-65
2023/12/28 09:17:48;;;;;;;7.90;2.83;;;12.90;90.10;;;14.62;56.90;100679.44;3082272;46;20587;-66
2023/12/28 09:20:18;;;;;;;12.43;2.93;;;13.00;90.10;;;14.64;56.89;100708.41;3082569;46;20977;-66
2023/12/28 09:22:47;;;;;;;4.87;2.07;;;13.00;89.90;;;14.67;56.53;100673.53;3082085;46;20459;-66
2023/12/28 09:25:16;;;;;;;7.93;2.90;;;13.00;89.60;;;14.64;56.82;100689.84;3082743;46;20430;-66
2023/12/28 09:27:44;;;;;;;10.27;3.00;;;13.10;89.70;;;14.61;56.87;100699.00;3082423;46;21025;-66
2023/12/28 09:30:13;;;;;;;7.43;2.80;;;13.10;89.30;;;14.71;56.74;100680.06;3083073;46;20527;-66
2023/12/28 09:32:42;;;;;;;11.40;2.90;;;13.10;89.70;;;14.69;56.47;100680.25;3082532;46;20956;-67
2023/12/28 09:35:10;;;;;;;12.40;2.73;;;13.10;89.20;;;14.77;56.32;100682.72;3082387;46;20438;-66
2023/12/28 09:37:38;;;;;;;11.63;3.23;;;13.20;89.30;;;14.82;56.45;100684.75;3082173;46;20438;-66
2023/12/28 09:40:08;;;;;;;11.40;3.03;;;13.20;89.20;;;14.72;56.16;100674.56;3081869;46;20453;-66
2023/12/28 09:43:07;;;;;;;8.30;2.83;;;13.20;88.70;;;14.60;56.48;100673.53;3081231;46;20433;-64
2023/12/28 09:45:35;;;;;;;9.47;2.90;;;13.20;88.60;;;14.68;56.45;100683.94;3082488;46;20440;-64
2023/12/28 09:48:06;;;;;;;5.43;2.53;;;13.20;88.60;;;14.74;56.42;100683.13;3081531;46;21021;-66
2023/12/28 09:50:35;;;;;;;10.27;2.60;;;13.30;88.90;;;14.74;56.55;100691.06;3081273;46;20499;-66
2023/12/28 09:53:03;;;;;;;7.83;2.93;;;13.30;88.70;;;14.72;56.19;100687.81;3082416;46;20994;-66
2023/12/28 09:55:32;;;;;;;8.43;2.83;;;13.30;88.50;;;14.73;56.44;100676.22;3082411;46;20427;-66
2023/12/28 09:58:05;;;;;;;6.83;2.67;;;13.30;88.60;;;14.86;55.98;100699.22;3081806;43;20558;-66
2023/12/28 10:00:34;;;;;;;9.20;3.07;;;13.30;88.60;;;14.91;56.01;100684.34;3081513;46;21079;-66
2023/12/28 10:03:03;;;;;;;9.53;2.77;;;13.30;88.40;;;14.76;56.18;100693.53;3082339;46;20430;-65
2023/12/28 10:05:31;;;;;;;16.90;3.37;;;13.30;88.20;;;14.77;56.43;100680.06;3082222;46;20427;-66
2023/12/28 10:08:00;;;;;;;9.07;2.90;;;13.40;88.40;;;14.80;56.16;100698.22;3081679;46;20447;-66
2023/12/28 10:10:29;;;;;;;7.47;2.80;;;13.30;88.40;;;14.85;56.11;100685.19;3081656;46;20459;-65
2023/12/28 10:12:58;;;;;;;6.80;2.43;;;13.40;88.50;;;14.71;56.24;100670.25;3082369;46;20551;-66
2023/12/28 10:15:27;;;;;;;11.20;3.43;;;13.30;88.20;;;14.72;56.39;100695.75;3082374;46;20473;-64
2023/12/28 10:17:55;;;;;;;12.60;3.30;;;13.40;88.30;;;14.85;56.13;100708.22;3081686;46;20471;-65
2023/12/28 10:20:27;;;;;;;10.13;2.77;;;13.40;88.60;;;14.84;55.62;100710.03;3081937;46;20449;-66